Simpson, Illinois
Current Conditions -  °F | °C
As of 7:35 PM on Tuesday 27 Jan 2015 (Local Time) from KM30 Reporting Station
Clear Clear  
Wind Chill: 31°   Ceiling: Unl
Heat Index: 35°   Visibility: 10mi
Dew Point: 31°   Wind: 5mph
Humidity: 82%   Direction: 50°NE
Pressure: 30.22"   Gusts: NA
Location:  37.47°N, 88.76°W
Report Text: KM30 280135Z AUTO 05004KT 10SM CLR 02/M01 A3022 RMK AO2 T00191008
Loading
Personal Weather Stations






























Interactive Weather Map New forecast layout! Learn more

10-Day Weather Forecast

Advertisements
Track Severe Weather on mobile